Time;durP1;ratioP1;P1;durP2;ratioP2;P2;SDS_P1;SDS_P2;PMS_P1;PMS_P2;Temp;Humidity;BMP_temperature;BMP_pressure;BME280_temperature;BME280_humidity;BME280_pressure;Samples;Min_cycle;Max_cycle;Signal;HPM_P1;HPM_P2
2024/02/27 05:06:26;;;;;;;;;26.00;25.00;;;;;;;;6374752;46;5001165;-54
2024/02/27 12:59:17;;;;;;;;;26.00;22.33;;;;;;;;6492983;39;9044;-57
2024/02/27 13:05:32;;;;;;;;;30.00;27.67;;;;;;;;6491487;39;9059;-56
2024/02/27 13:11:42;;;;;;;;;13.67;13.67;;;;;;;;6493157;39;8875;-58
2024/02/27 13:17:46;;;;;;;;;18.67;15.00;;;;;;;;6492291;31;9588;-57
2024/02/27 13:23:51;;;;;;;;;17.33;15.00;;;;;;;;6492180;39;9023;-55
2024/02/27 13:29:56;;;;;;;;;22.67;20.67;;;;;;;;6490304;39;8971;-58
2024/02/27 13:36:02;;;;;;;;;22.00;20.00;;;;;;;;6490864;46;9014;-59
2024/02/27 13:42:15;;;;;;;;;19.67;14.33;;;;;;;;6492238;46;8947;-58
2024/02/27 13:48:18;;;;;;;;;16.67;16.67;;;;;;;;6488673;39;8931;-58
2024/02/27 13:54:22;;;;;;;;;20.00;19.67;;;;;;;;6489739;39;8956;-58
2024/02/27 14:00:25;;;;;;;;;19.33;18.00;;;;;;;;6490102;39;8919;-57
2024/02/27 14:06:28;;;;;;;;;18.00;16.33;;;;;;;;6490141;46;9113;-57
2024/02/27 14:12:34;;;;;;;;;16.33;15.33;;;;;;;;6486614;46;8944;-57
2024/02/27 14:18:37;;;;;;;;;20.67;20.00;;;;;;;;6488592;39;8972;-58
2024/02/27 14:24:43;;;;;;;;;22.33;17.67;;;;;;;;6491025;39;8897;-55
2024/02/27 14:30:48;;;;;;;;;32.33;29.33;;;;;;;;6489510;39;8942;-57
2024/02/27 14:36:52;;;;;;;;;23.00;22.33;;;;;;;;6487049;31;8944;-58
2024/02/27 14:42:57;;;;;;;;;18.33;18.00;;;;;;;;6489448;46;8912;-57
2024/02/27 14:49:00;;;;;;;;;20.00;16.33;;;;;;;;6489680;39;8933;-58
2024/02/27 14:55:04;;;;;;;;;20.00;18.00;;;;;;;;6491132;46;8860;-58
2024/02/27 15:01:07;;;;;;;;;22.00;20.00;;;;;;;;6490453;39;8989;-60
2024/02/27 15:07:09;;;;;;;;;19.67;18.00;;;;;;;;6491120;31;8864;-59
2024/02/27 15:13:12;;;;;;;;;23.00;21.00;;;;;;;;6491425;46;8879;-59
2024/02/27 15:19:16;;;;;;;;;20.00;18.67;;;;;;;;6490691;31;8849;-59
2024/02/27 15:25:19;;;;;;;;;22.00;19.33;;;;;;;;6490523;46;8919;-54
2024/02/27 15:31:23;;;;;;;;;18.67;18.67;;;;;;;;6490134;46;8864;-58
2024/02/27 15:37:28;;;;;;;;;25.25;23.25;;;;;;;;6490476;39;8891;-58
2024/02/27 15:43:32;;;;;;;;;24.25;19.75;;;;;;;;6490332;47;8927;-59
2024/02/27 15:49:34;;;;;;;;;24.00;24.00;;;;;;;;6490167;31;9533;-55
2024/02/27 15:55:43;;;;;;;;;30.75;24.75;;;;;;;;6490922;39;8930;-57
2024/02/27 16:01:46;;;;;;;;;25.25;22.00;;;;;;;;6491248;46;8938;-59
2024/02/27 16:07:49;;;;;;;;;21.25;19.50;;;;;;;;6492020;39;8924;-57
2024/02/27 16:13:53;;;;;;;;;20.25;18.25;;;;;;;;6492189;46;8909;-60
2024/02/27 16:20:02;;;;;;;;;31.50;31.25;;;;;;;;6491835;39;8946;-59
2024/02/27 16:26:08;;;;;;;;;37.50;33.50;;;;;;;;6492616;39;8815;-58
2024/02/27 16:32:11;;;;;;;;;34.00;29.25;;;;;;;;6491281;46;9026;-57
2024/02/27 16:38:14;;;;;;;;;30.25;26.50;;;;;;;;6491932;39;8965;-58
2024/02/27 16:44:18;;;;;;;;;32.75;29.50;;;;;;;;6491753;39;9047;-57
2024/02/27 16:50:21;;;;;;;;;11.00;8.75;;;;;;;;6492574;39;8847;-57
2024/02/27 16:56:24;;;;;;;;;31.25;27.75;;;;;;;;6492283;46;8885;-56
2024/02/27 17:02:27;;;;;;;;;25.75;24.00;;;;;;;;6477945;36;5001627;-59
2024/02/27 17:08:30;;;;;;;;;34.50;31.00;;;;;;;;6491842;39;8833;-57
2024/02/27 17:14:34;;;;;;;;;30.50;30.50;;;;;;;;6491263;46;8954;-58
2024/02/27 17:20:38;;;;;;;;;38.50;35.75;;;;;;;;6491558;39;8892;-58
2024/02/27 17:26:40;;;;;;;;;41.25;37.25;;;;;;;;6492665;39;9533;-58
2024/02/27 17:32:45;;;;;;;;;50.75;41.25;;;;;;;;6491640;39;8948;-57
2024/02/27 17:38:49;;;;;;;;;47.25;39.00;;;;;;;;6490642;31;8872;-58
2024/02/27 17:44:52;;;;;;;;;46.75;40.50;;;;;;;;6491635;46;8931;-57
2024/02/27 17:50:56;;;;;;;;;50.75;39.75;;;;;;;;6491734;39;8871;-58
2024/02/27 17:57:03;;;;;;;;;50.25;40.25;;;;;;;;6491997;39;8911;-56
2024/02/27 18:03:07;;;;;;;;;46.00;40.00;;;;;;;;6490723;39;8987;-57
2024/02/27 18:09:13;;;;;;;;;46.50;40.00;;;;;;;;6490261;46;8942;-57
2024/02/27 18:15:30;;;;;;;;;45.25;41.00;;;;;;;;6491681;31;8905;-57
2024/02/27 18:21:55;;;;;;;;;46.50;41.75;;;;;;;;6489565;39;8937;-57
2024/02/27 18:28:00;;;;;;;;;48.75;41.00;;;;;;;;6489925;31;8875;-58
2024/02/27 18:34:04;;;;;;;;;52.50;45.25;;;;;;;;6489525;31;8884;-57
2024/02/27 18:40:08;;;;;;;;;52.00;42.00;;;;;;;;6490297;39;8943;-56
2024/02/27 18:46:13;;;;;;;;;50.75;44.25;;;;;;;;6489890;39;9078;-56
2024/02/27 18:52:16;;;;;;;;;46.50;41.25;;;;;;;;6489595;46;8982;-57
2024/02/27 18:58:19;;;;;;;;;43.75;38.75;;;;;;;;6489203;39;9671;-55
2024/02/27 19:04:22;;;;;;;;;46.25;38.50;;;;;;;;6488670;39;8974;-54
2024/02/27 19:10:28;;;;;;;;;42.25;37.00;;;;;;;;6489274;31;8863;-58
2024/02/27 19:16:31;;;;;;;;;36.00;34.50;;;;;;;;6488614;46;8974;-55
2024/02/27 19:22:34;;;;;;;;;47.00;41.25;;;;;;;;6488665;39;8927;-57
2024/02/27 19:28:40;;;;;;;;;42.00;37.50;;;;;;;;6489044;39;8910;-56
2024/02/27 19:34:45;;;;;;;;;44.00;40.67;;;;;;;;6487268;46;8880;-59
2024/02/27 19:40:48;;;;;;;;;41.50;38.75;;;;;;;;6488865;47;9128;-58
2024/02/27 19:46:51;;;;;;;;;45.00;39.50;;;;;;;;6488609;31;8867;-58
2024/02/27 19:53:04;;;;;;;;;38.00;36.50;;;;;;;;6488706;31;8883;-58
2024/02/27 19:59:09;;;;;;;;;39.00;35.50;;;;;;;;6488509;47;8918;-57
2024/02/27 20:05:12;;;;;;;;;53.25;39.75;;;;;;;;6488892;31;8923;-60
2024/02/27 20:11:15;;;;;;;;;44.25;37.75;;;;;;;;6488939;39;8859;-56
2024/02/27 20:17:19;;;;;;;;;49.75;41.75;;;;;;;;6488168;31;8847;-56
2024/02/27 20:23:22;;;;;;;;;46.00;41.00;;;;;;;;6487822;39;8907;-57
2024/02/27 20:29:26;;;;;;;;;41.25;37.75;;;;;;;;6486957;31;8847;-59
2024/02/27 20:35:51;;;;;;;;;47.00;42.00;;;;;;;;6487827;47;8927;-57
2024/02/27 20:41:58;;;;;;;;;45.50;39.50;;;;;;;;6488045;39;8903;-55
2024/02/27 20:48:03;;;;;;;;;43.25;39.75;;;;;;;;6490337;39;8999;-54
2024/02/27 20:54:05;;;;;;;;;44.75;39.25;;;;;;;;6490038;46;8933;-55
2024/02/27 21:00:09;;;;;;;;;46.75;37.75;;;;;;;;6490051;39;9042;-56
2024/02/27 21:06:11;;;;;;;;;31.75;29.00;;;;;;;;6490408;31;8927;-56
2024/02/27 21:12:14;;;;;;;;;31.50;30.00;;;;;;;;6490161;39;8888;-56
2024/02/27 21:18:18;;;;;;;;;35.50;32.25;;;;;;;;6489514;39;8941;-56
2024/02/27 21:24:22;;;;;;;;;39.75;35.50;;;;;;;;6488932;39;8976;-56
2024/02/27 21:30:26;;;;;;;;;32.75;30.00;;;;;;;;6489389;39;8947;-56
2024/02/27 21:36:30;;;;;;;;;29.00;25.50;;;;;;;;6489394;39;8934;-55
2024/02/27 21:42:37;;;;;;;;;30.75;27.50;;;;;;;;6489760;39;8939;-54
2024/02/27 21:48:39;;;;;;;;;32.00;29.00;;;;;;;;6489354;39;8875;-54
2024/02/27 21:54:48;;;;;;;;;35.50;33.25;;;;;;;;6490183;39;9022;-53
2024/02/27 22:00:52;;;;;;;;;30.75;27.25;;;;;;;;6489620;39;8883;-56
2024/02/27 22:06:56;;;;;;;;;43.25;31.75;;;;;;;;6489970;39;8966;-56
2024/02/27 22:13:01;;;;;;;;;34.75;27.75;;;;;;;;6490116;39;8851;-56
2024/02/27 22:19:04;;;;;;;;;25.25;24.00;;;;;;;;6488464;39;8883;-58
2024/02/27 22:25:08;;;;;;;;;35.00;28.00;;;;;;;;6489341;31;8951;-57
2024/02/27 22:31:13;;;;;;;;;38.75;29.75;;;;;;;;6489195;31;8898;-52
2024/02/27 22:37:16;;;;;;;;;39.75;33.25;;;;;;;;6489605;39;8934;-57
2024/02/27 22:43:20;;;;;;;;;35.00;31.25;;;;;;;;6489481;31;8899;-55
2024/02/27 22:49:23;;;;;;;;;35.75;33.00;;;;;;;;6488866;46;8930;-54
2024/02/27 22:55:26;;;;;;;;;34.50;33.75;;;;;;;;6489377;31;8895;-53
2024/02/27 23:01:28;;;;;;;;;38.75;35.75;;;;;;;;6489377;31;9206;-58
2024/02/27 23:07:31;;;;;;;;;41.50;36.75;;;;;;;;6489060;39;8871;-57
2024/02/27 23:13:34;;;;;;;;;41.25;37.75;;;;;;;;6488673;39;8908;-57
2024/02/27 23:19:36;;;;;;;;;34.25;32.75;;;;;;;;6488478;31;9677;-53
2024/02/27 23:25:40;;;;;;;;;35.25;32.00;;;;;;;;6488924;31;8907;-53
2024/02/27 23:31:43;;;;;;;;;33.75;33.00;;;;;;;;6488154;46;8942;-54
2024/02/27 23:37:47;;;;;;;;;30.75;29.50;;;;;;;;6487554;31;8922;-56
2024/02/27 23:43:51;;;;;;;;;31.25;30.50;;;;;;;;6488953;39;8930;-55
2024/02/27 23:49:56;;;;;;;;;41.25;38.25;;;;;;;;6488738;39;8907;-54
2024/02/27 23:55:58;;;;;;;;;39.75;32.00;;;;;;;;6489253;31;8900;-55
